Terminal Aerodrome Forecast
Issued by NWS

Home | Current Version | Previous Version | Text Only | Print | Product List | Glossary On
Versions: 1 2 3 4 5 6 7 8 9 10 11 12 13 14 15 16 17 18 19
461
FTUS44 KLIX 232337
TAFMSY
TAF
KMSY 232337Z 2400/2424 16006KT P6SM FEW200
     FM240900 16007KT P6SM BKN015
     FM241100 17005KT 3SM BR BKN015
     FM241430 17006KT P6SM BKN020
     FM241700 20009KT P6SM SCT045
     FM242000 21011KT P6SM SCT150=

USA.gov is the U.S. government's official web portal to all federal, state and local government web resources and services.